sensor_id;sensor_type;location;lat;lon;timestamp;P1;durP1;ratioP1;P2;durP2;ratioP2
67544;SDS011;54380;47.770;11.150;2022-07-23T00:00:16;14.25;;;6.43;;
67544;SDS011;54380;47.770;11.150;2022-07-23T00:02:43;12.15;;;3.88;;
67544;SDS011;54380;47.770;11.150;2022-07-23T00:05:10;12.68;;;4.00;;
67544;SDS011;54380;47.770;11.150;2022-07-23T00:07:39;12.00;;;3.95;;
67544;SDS011;54380;47.770;11.150;2022-07-23T00:10:07;13.00;;;4.60;;
67544;SDS011;54380;47.770;11.150;2022-07-23T00:12:34;13.82;;;5.57;;
67544;SDS011;54380;47.770;11.150;2022-07-23T00:15:02;12.85;;;5.15;;
67544;SDS011;54380;47.770;11.150;2022-07-23T00:17:30;12.48;;;4.68;;
67544;SDS011;54380;47.770;11.150;2022-07-23T00:19:58;12.27;;;4.32;;
67544;SDS011;54380;47.770;11.150;2022-07-23T00:22:25;13.05;;;4.53;;
67544;SDS011;54380;47.770;11.150;2022-07-23T00:24:53;12.25;;;4.40;;
67544;SDS011;54380;47.770;11.150;2022-07-23T00:27:40;11.88;;;4.10;;
67544;SDS011;54380;47.770;11.150;2022-07-23T00:30:08;12.63;;;4.40;;
67544;SDS011;54380;47.770;11.150;2022-07-23T00:32:44;12.20;;;3.88;;
67544;SDS011;54380;47.770;11.150;2022-07-23T00:35:21;12.00;;;3.92;;
67544;SDS011;54380;47.770;11.150;2022-07-23T00:37:49;11.63;;;3.78;;
67544;SDS011;54380;47.770;11.150;2022-07-23T00:40:17;11.85;;;4.65;;
67544;SDS011;54380;47.770;11.150;2022-07-23T00:42:44;11.50;;;3.85;;
67544;SDS011;54380;47.770;11.150;2022-07-23T00:45:11;13.55;;;5.13;;
67544;SDS011;54380;47.770;11.150;2022-07-23T00:47:39;11.30;;;3.67;;
67544;SDS011;54380;47.770;11.150;2022-07-23T00:50:06;11.95;;;3.72;;
67544;SDS011;54380;47.770;11.150;2022-07-23T00:52:35;12.30;;;3.92;;
67544;SDS011;54380;47.770;11.150;2022-07-23T00:55:04;13.60;;;4.13;;
67544;SDS011;54380;47.770;11.150;2022-07-23T00:57:34;13.57;;;4.45;;
67544;SDS011;54380;47.770;11.150;2022-07-23T01:00:02;12.52;;;4.10;;
67544;SDS011;54380;47.770;11.150;2022-07-23T01:02:30;12.07;;;4.30;;
67544;SDS011;54380;47.770;11.150;2022-07-23T01:04:57;10.68;;;3.53;;
67544;SDS011;54380;47.770;11.150;2022-07-23T01:07:23;13.18;;;3.70;;
67544;SDS011;54380;47.770;11.150;2022-07-23T01:09:51;10.13;;;3.10;;
67544;SDS011;54380;47.770;11.150;2022-07-23T01:12:18;13.63;;;4.00;;
67544;SDS011;54380;47.770;11.150;2022-07-23T01:14:47;13.85;;;2.97;;
67544;SDS011;54380;47.770;11.150;2022-07-23T01:19:47;10.82;;;3.75;;
67544;SDS011;54380;47.770;11.150;2022-07-23T01:22:14;10.95;;;3.13;;
67544;SDS011;54380;47.770;11.150;2022-07-23T01:24:45;10.18;;;3.00;;
67544;SDS011;54380;47.770;11.150;2022-07-23T01:27:13;10.52;;;3.00;;
67544;SDS011;54380;47.770;11.150;2022-07-23T01:29:40;10.68;;;2.95;;
67544;SDS011;54380;47.770;11.150;2022-07-23T01:32:13;11.15;;;3.15;;
67544;SDS011;54380;47.770;11.150;2022-07-23T01:34:40;9.95;;;2.88;;
67544;SDS011;54380;47.770;11.150;2022-07-23T01:37:07;10.02;;;2.38;;
67544;SDS011;54380;47.770;11.150;2022-07-23T01:39:34;11.30;;;3.63;;
67544;SDS011;54380;47.770;11.150;2022-07-23T01:42:03;9.65;;;2.28;;
67544;SDS011;54380;47.770;11.150;2022-07-23T01:44:31;10.00;;;2.80;;
67544;SDS011;54380;47.770;11.150;2022-07-23T01:46:58;10.80;;;2.25;;
67544;SDS011;54380;47.770;11.150;2022-07-23T01:49:25;9.07;;;2.22;;
67544;SDS011;54380;47.770;11.150;2022-07-23T01:51:57;8.20;;;2.17;;
67544;SDS011;54380;47.770;11.150;2022-07-23T01:54:47;8.93;;;2.28;;
67544;SDS011;54380;47.770;11.150;2022-07-23T01:57:15;9.63;;;2.03;;
67544;SDS011;54380;47.770;11.150;2022-07-23T01:59:42;8.32;;;2.05;;
67544;SDS011;54380;47.770;11.150;2022-07-23T02:02:09;12.18;;;2.00;;
67544;SDS011;54380;47.770;11.150;2022-07-23T02:04:36;9.68;;;1.73;;
67544;SDS011;54380;47.770;11.150;2022-07-23T02:07:03;9.13;;;2.10;;
67544;SDS011;54380;47.770;11.150;2022-07-23T02:09:31;8.30;;;1.80;;
67544;SDS011;54380;47.770;11.150;2022-07-23T02:11:58;9.90;;;1.85;;
67544;SDS011;54380;47.770;11.150;2022-07-23T02:14:26;9.60;;;2.28;;
67544;SDS011;54380;47.770;11.150;2022-07-23T02:16:53;10.35;;;2.15;;
67544;SDS011;54380;47.770;11.150;2022-07-23T02:19:20;9.15;;;2.10;;
67544;SDS011;54380;47.770;11.150;2022-07-23T02:21:47;11.38;;;2.63;;
67544;SDS011;54380;47.770;11.150;2022-07-23T02:24:14;10.50;;;2.53;;
67544;SDS011;54380;47.770;11.150;2022-07-23T02:26:41;10.85;;;2.20;;
67544;SDS011;54380;47.770;11.150;2022-07-23T02:29:08;11.70;;;2.28;;
67544;SDS011;54380;47.770;11.150;2022-07-23T02:31:37;10.15;;;2.70;;
67544;SDS011;54380;47.770;11.150;2022-07-23T02:34:05;12.57;;;2.67;;
67544;SDS011;54380;47.770;11.150;2022-07-23T02:36:37;12.77;;;3.00;;
67544;SDS011;54380;47.770;11.150;2022-07-23T02:39:05;10.43;;;2.78;;
67544;SDS011;54380;47.770;11.150;2022-07-23T02:41:33;11.98;;;3.25;;
67544;SDS011;54380;47.770;11.150;2022-07-23T02:44:00;14.20;;;3.33;;
67544;SDS011;54380;47.770;11.150;2022-07-23T02:46:27;12.18;;;2.92;;
67544;SDS011;54380;47.770;11.150;2022-07-23T02:48:57;11.73;;;2.90;;
67544;SDS011;54380;47.770;11.150;2022-07-23T02:51:24;11.80;;;3.10;;
67544;SDS011;54380;47.770;11.150;2022-07-23T02:53:56;11.57;;;3.10;;
67544;SDS011;54380;47.770;11.150;2022-07-23T02:56:24;11.38;;;2.70;;
67544;SDS011;54380;47.770;11.150;2022-07-23T02:58:50;10.50;;;2.63;;
67544;SDS011;54380;47.770;11.150;2022-07-23T03:01:17;10.82;;;2.95;;
67544;SDS011;54380;47.770;11.150;2022-07-23T03:03:46;11.70;;;3.03;;
67544;SDS011;54380;47.770;11.150;2022-07-23T03:06:14;9.90;;;2.72;;
67544;SDS011;54380;47.770;11.150;2022-07-23T03:08:41;10.85;;;3.25;;
67544;SDS011;54380;47.770;11.150;2022-07-23T03:11:08;11.93;;;3.17;;
67544;SDS011;54380;47.770;11.150;2022-07-23T03:13:38;11.60;;;4.65;;
67544;SDS011;54380;47.770;11.150;2022-07-23T03:16:05;13.43;;;3.72;;
67544;SDS011;54380;47.770;11.150;2022-07-23T03:18:35;10.60;;;3.03;;
67544;SDS011;54380;47.770;11.150;2022-07-23T03:21:08;10.85;;;2.42;;
67544;SDS011;54380;47.770;11.150;2022-07-23T03:26:28;9.43;;;2.58;;
67544;SDS011;54380;47.770;11.150;2022-07-23T03:28:55;10.45;;;2.78;;
67544;SDS011;54380;47.770;11.150;2022-07-23T03:31:26;10.40;;;1.80;;
67544;SDS011;54380;47.770;11.150;2022-07-23T03:33:53;11.05;;;3.08;;
67544;SDS011;54380;47.770;11.150;2022-07-23T03:36:19;11.23;;;3.35;;
67544;SDS011;54380;47.770;11.150;2022-07-23T03:38:48;12.30;;;3.90;;
67544;SDS011;54380;47.770;11.150;2022-07-23T03:41:20;13.65;;;4.28;;
67544;SDS011;54380;47.770;11.150;2022-07-23T03:43:47;11.90;;;4.03;;
67544;SDS011;54380;47.770;11.150;2022-07-23T03:46:17;12.45;;;3.97;;
67544;SDS011;54380;47.770;11.150;2022-07-23T03:48:44;11.30;;;3.28;;
67544;SDS011;54380;47.770;11.150;2022-07-23T03:51:13;13.13;;;4.38;;
67544;SDS011;54380;47.770;11.150;2022-07-23T03:53:40;15.95;;;4.47;;
67544;SDS011;54380;47.770;11.150;2022-07-23T03:56:07;12.13;;;3.47;;
67544;SDS011;54380;47.770;11.150;2022-07-23T03:58:35;14.60;;;3.58;;
67544;SDS011;54380;47.770;11.150;2022-07-23T04:01:02;23.73;;;4.05;;
67544;SDS011;54380;47.770;11.150;2022-07-23T04:03:29;13.45;;;3.65;;
67544;SDS011;54380;47.770;11.150;2022-07-23T04:05:56;10.45;;;2.78;;
67544;SDS011;54380;47.770;11.150;2022-07-23T04:08:23;10.50;;;3.13;;
67544;SDS011;54380;47.770;11.150;2022-07-23T04:10:51;10.95;;;3.05;;
67544;SDS011;54380;47.770;11.150;2022-07-23T04:13:18;11.45;;;2.97;;
67544;SDS011;54380;47.770;11.150;2022-07-23T04:15:47;10.35;;;2.65;;
67544;SDS011;54380;47.770;11.150;2022-07-23T04:18:15;10.73;;;3.15;;
67544;SDS011;54380;47.770;11.150;2022-07-23T04:20:52;10.50;;;3.42;;
67544;SDS011;54380;47.770;11.150;2022-07-23T04:23:19;11.50;;;3.28;;
67544;SDS011;54380;47.770;11.150;2022-07-23T04:25:47;10.80;;;3.05;;
67544;SDS011;54380;47.770;11.150;2022-07-23T04:28:14;10.30;;;2.65;;
67544;SDS011;54380;47.770;11.150;2022-07-23T04:30:41;10.50;;;3.03;;
67544;SDS011;54380;47.770;11.150;2022-07-23T04:33:10;11.75;;;2.97;;
67544;SDS011;54380;47.770;11.150;2022-07-23T04:38:12;12.05;;;3.53;;
67544;SDS011;54380;47.770;11.150;2022-07-23T04:40:39;10.75;;;2.83;;
67544;SDS011;54380;47.770;11.150;2022-07-23T04:43:06;10.60;;;2.58;;
67544;SDS011;54380;47.770;11.150;2022-07-23T04:45:39;10.30;;;2.92;;
67544;SDS011;54380;47.770;11.150;2022-07-23T04:48:10;11.70;;;2.70;;
67544;SDS011;54380;47.770;11.150;2022-07-23T04:50:38;9.85;;;3.08;;
67544;SDS011;54380;47.770;11.150;2022-07-23T04:53:13;9.95;;;2.50;;
67544;SDS011;54380;47.770;11.150;2022-07-23T04:55:41;10.50;;;3.00;;
67544;SDS011;54380;47.770;11.150;2022-07-23T04:58:08;11.75;;;3.40;;
67544;SDS011;54380;47.770;11.150;2022-07-23T05:00:35;11.93;;;3.38;;
67544;SDS011;54380;47.770;11.150;2022-07-23T05:03:02;11.07;;;3.17;;
67544;SDS011;54380;47.770;11.150;2022-07-23T05:05:30;10.27;;;2.97;;
67544;SDS011;54380;47.770;11.150;2022-07-23T05:08:05;13.82;;;4.57;;
67544;SDS011;54380;47.770;11.150;2022-07-23T05:10:35;10.07;;;2.72;;
67544;SDS011;54380;47.770;11.150;2022-07-23T05:13:02;11.23;;;3.13;;
67544;SDS011;54380;47.770;11.150;2022-07-23T05:15:30;10.30;;;2.72;;
67544;SDS011;54380;47.770;11.150;2022-07-23T05:17:57;11.88;;;3.78;;
67544;SDS011;54380;47.770;11.150;2022-07-23T05:20:25;11.30;;;3.00;;
67544;SDS011;54380;47.770;11.150;2022-07-23T05:22:53;11.35;;;3.03;;
67544;SDS011;54380;47.770;11.150;2022-07-23T05:25:20;11.55;;;3.72;;
67544;SDS011;54380;47.770;11.150;2022-07-23T05:27:47;11.27;;;3.30;;
67544;SDS011;54380;47.770;11.150;2022-07-23T05:30:14;11.07;;;3.17;;
67544;SDS011;54380;47.770;11.150;2022-07-23T05:32:43;11.98;;;4.00;;
67544;SDS011;54380;47.770;11.150;2022-07-23T05:35:14;11.98;;;4.35;;
67544;SDS011;54380;47.770;11.150;2022-07-23T05:37:47;11.80;;;3.20;;
67544;SDS011;54380;47.770;11.150;2022-07-23T05:40:15;12.40;;;4.00;;
67544;SDS011;54380;47.770;11.150;2022-07-23T05:42:42;11.60;;;3.22;;
67544;SDS011;54380;47.770;11.150;2022-07-23T05:45:09;12.05;;;3.50;;
67544;SDS011;54380;47.770;11.150;2022-07-23T05:47:41;13.25;;;3.92;;
67544;SDS011;54380;47.770;11.150;2022-07-23T05:50:09;12.10;;;3.70;;
67544;SDS011;54380;47.770;11.150;2022-07-23T05:52:44;12.05;;;3.63;;
67544;SDS011;54380;47.770;11.150;2022-07-23T05:55:29;13.10;;;3.45;;
67544;SDS011;54380;47.770;11.150;2022-07-23T05:57:58;11.57;;;3.63;;
67544;SDS011;54380;47.770;11.150;2022-07-23T06:00:26;11.18;;;3.03;;
67544;SDS011;54380;47.770;11.150;2022-07-23T06:02:53;11.73;;;3.95;;
67544;SDS011;54380;47.770;11.150;2022-07-23T06:05:22;10.98;;;3.20;;
67544;SDS011;54380;47.770;11.150;2022-07-23T06:07:51;11.60;;;3.70;;
67544;SDS011;54380;47.770;11.150;2022-07-23T06:10:20;12.10;;;3.70;;
67544;SDS011;54380;47.770;11.150;2022-07-23T06:12:48;12.05;;;3.95;;
67544;SDS011;54380;47.770;11.150;2022-07-23T06:15:15;11.10;;;3.28;;
67544;SDS011;54380;47.770;11.150;2022-07-23T06:17:42;11.90;;;3.47;;
67544;SDS011;54380;47.770;11.150;2022-07-23T06:20:09;11.20;;;3.67;;
67544;SDS011;54380;47.770;11.150;2022-07-23T06:22:38;11.77;;;3.90;;
67544;SDS011;54380;47.770;11.150;2022-07-23T06:25:05;11.55;;;3.47;;
67544;SDS011;54380;47.770;11.150;2022-07-23T06:27:40;11.00;;;4.32;;
67544;SDS011;54380;47.770;11.150;2022-07-23T06:30:12;11.38;;;3.53;;
67544;SDS011;54380;47.770;11.150;2022-07-23T06:32:43;10.80;;;3.67;;
67544;SDS011;54380;47.770;11.150;2022-07-23T06:35:10;13.00;;;4.32;;
67544;SDS011;54380;47.770;11.150;2022-07-23T06:37:37;12.02;;;4.20;;
67544;SDS011;54380;47.770;11.150;2022-07-23T06:40:04;11.50;;;3.53;;
67544;SDS011;54380;47.770;11.150;2022-07-23T06:42:34;12.10;;;4.13;;
67544;SDS011;54380;47.770;11.150;2022-07-23T06:45:03;11.55;;;3.28;;
67544;SDS011;54380;47.770;11.150;2022-07-23T06:47:31;11.48;;;3.50;;
67544;SDS011;54380;47.770;11.150;2022-07-23T06:50:00;19.75;;;3.75;;
67544;SDS011;54380;47.770;11.150;2022-07-23T06:52:26;15.07;;;4.45;;
67544;SDS011;54380;47.770;11.150;2022-07-23T06:54:53;13.45;;;3.83;;
67544;SDS011;54380;47.770;11.150;2022-07-23T06:57:20;12.32;;;3.22;;
67544;SDS011;54380;47.770;11.150;2022-07-23T06:59:48;10.82;;;3.70;;
67544;SDS011;54380;47.770;11.150;2022-07-23T07:02:20;11.80;;;3.58;;
67544;SDS011;54380;47.770;11.150;2022-07-23T07:04:49;15.35;;;2.92;;
67544;SDS011;54380;47.770;11.150;2022-07-23T07:07:16;12.13;;;2.97;;
67544;SDS011;54380;47.770;11.150;2022-07-23T07:09:43;11.00;;;3.17;;
67544;SDS011;54380;47.770;11.150;2022-07-23T07:14:38;10.38;;;3.17;;
67544;SDS011;54380;47.770;11.150;2022-07-23T07:17:05;9.93;;;2.47;;
67544;SDS011;54380;47.770;11.150;2022-07-23T07:19:32;11.68;;;3.45;;
67544;SDS011;54380;47.770;11.150;2022-07-23T07:22:00;10.98;;;2.83;;
67544;SDS011;54380;47.770;11.150;2022-07-23T07:24:27;9.77;;;2.22;;
67544;SDS011;54380;47.770;11.150;2022-07-23T07:27:00;9.93;;;2.78;;
67544;SDS011;54380;47.770;11.150;2022-07-23T07:29:27;10.45;;;2.58;;
67544;SDS011;54380;47.770;11.150;2022-07-23T07:31:54;9.25;;;2.67;;
67544;SDS011;54380;47.770;11.150;2022-07-23T07:34:21;9.13;;;2.53;;
67544;SDS011;54380;47.770;11.150;2022-07-23T07:36:48;10.25;;;3.22;;
67544;SDS011;54380;47.770;11.150;2022-07-23T07:39:20;12.25;;;3.17;;
67544;SDS011;54380;47.770;11.150;2022-07-23T07:41:46;10.95;;;2.95;;
67544;SDS011;54380;47.770;11.150;2022-07-23T07:44:13;10.38;;;2.78;;
67544;SDS011;54380;47.770;11.150;2022-07-23T07:46:40;12.23;;;3.58;;
67544;SDS011;54380;47.770;11.150;2022-07-23T07:49:07;10.43;;;2.28;;
67544;SDS011;54380;47.770;11.150;2022-07-23T07:51:41;9.38;;;2.33;;
67544;SDS011;54380;47.770;11.150;2022-07-23T07:54:10;11.20;;;2.70;;
67544;SDS011;54380;47.770;11.150;2022-07-23T07:56:39;10.15;;;2.92;;
67544;SDS011;54380;47.770;11.150;2022-07-23T07:59:07;9.80;;;2.67;;
67544;SDS011;54380;47.770;11.150;2022-07-23T08:01:34;10.52;;;3.10;;
67544;SDS011;54380;47.770;11.150;2022-07-23T08:04:01;9.32;;;2.65;;
67544;SDS011;54380;47.770;11.150;2022-07-23T08:06:28;10.32;;;2.60;;
67544;SDS011;54380;47.770;11.150;2022-07-23T08:08:55;9.95;;;2.45;;
67544;SDS011;54380;47.770;11.150;2022-07-23T08:11:22;10.55;;;2.58;;
67544;SDS011;54380;47.770;11.150;2022-07-23T08:13:50;9.65;;;2.55;;
67544;SDS011;54380;47.770;11.150;2022-07-23T08:16:17;10.13;;;2.63;;
67544;SDS011;54380;47.770;11.150;2022-07-23T08:18:44;10.25;;;3.20;;
67544;SDS011;54380;47.770;11.150;2022-07-23T08:21:11;10.40;;;3.83;;
67544;SDS011;54380;47.770;11.150;2022-07-23T08:23:37;12.38;;;2.90;;
67544;SDS011;54380;47.770;11.150;2022-07-23T08:26:04;10.18;;;3.05;;
67544;SDS011;54380;47.770;11.150;2022-07-23T08:28:31;11.73;;;2.95;;
67544;SDS011;54380;47.770;11.150;2022-07-23T08:31:02;11.52;;;3.08;;
67544;SDS011;54380;47.770;11.150;2022-07-23T08:33:31;10.93;;;3.03;;
67544;SDS011;54380;47.770;11.150;2022-07-23T08:36:00;11.23;;;3.45;;
67544;SDS011;54380;47.770;11.150;2022-07-23T08:38:29;11.30;;;3.22;;
67544;SDS011;54380;47.770;11.150;2022-07-23T08:40:56;11.05;;;3.28;;
67544;SDS011;54380;47.770;11.150;2022-07-23T08:43:24;9.98;;;2.67;;
67544;SDS011;54380;47.770;11.150;2022-07-23T08:45:53;11.98;;;3.30;;
67544;SDS011;54380;47.770;11.150;2022-07-23T08:48:28;11.30;;;2.90;;
67544;SDS011;54380;47.770;11.150;2022-07-23T08:51:00;10.63;;;2.72;;
67544;SDS011;54380;47.770;11.150;2022-07-23T08:53:28;10.77;;;3.17;;
67544;SDS011;54380;47.770;11.150;2022-07-23T08:55:56;11.65;;;3.17;;
67544;SDS011;54380;47.770;11.150;2022-07-23T08:58:25;11.70;;;3.03;;
67544;SDS011;54380;47.770;11.150;2022-07-23T09:00:54;12.90;;;2.90;;
67544;SDS011;54380;47.770;11.150;2022-07-23T09:03:23;10.30;;;2.80;;
67544;SDS011;54380;47.770;11.150;2022-07-23T09:05:52;10.25;;;2.25;;
67544;SDS011;54380;47.770;11.150;2022-07-23T09:08:20;8.65;;;2.33;;
67544;SDS011;54380;47.770;11.150;2022-07-23T09:10:49;9.77;;;2.40;;
67544;SDS011;54380;47.770;11.150;2022-07-23T09:13:25;9.80;;;2.50;;
67544;SDS011;54380;47.770;11.150;2022-07-23T09:15:55;9.82;;;2.78;;
67544;SDS011;54380;47.770;11.150;2022-07-23T09:21:23;9.48;;;2.70;;
67544;SDS011;54380;47.770;11.150;2022-07-23T09:23:53;8.18;;;1.83;;
67544;SDS011;54380;47.770;11.150;2022-07-23T09:26:25;10.02;;;2.63;;
67544;SDS011;54380;47.770;11.150;2022-07-23T09:28:58;11.15;;;2.80;;
67544;SDS011;54380;47.770;11.150;2022-07-23T09:31:30;9.40;;;2.90;;
67544;SDS011;54380;47.770;11.150;2022-07-23T09:34:06;10.63;;;2.92;;
67544;SDS011;54380;47.770;11.150;2022-07-23T09:36:42;9.77;;;2.58;;
67544;SDS011;54380;47.770;11.150;2022-07-23T09:39:09;11.13;;;2.83;;
67544;SDS011;54380;47.770;11.150;2022-07-23T09:41:38;10.40;;;2.92;;
67544;SDS011;54380;47.770;11.150;2022-07-23T09:44:07;10.40;;;2.53;;
67544;SDS011;54380;47.770;11.150;2022-07-23T09:46:36;9.80;;;2.05;;
67544;SDS011;54380;47.770;11.150;2022-07-23T09:49:13;10.43;;;3.10;;
67544;SDS011;54380;47.770;11.150;2022-07-23T09:51:47;11.20;;;3.03;;
67544;SDS011;54380;47.770;11.150;2022-07-23T09:54:22;10.77;;;3.08;;
67544;SDS011;54380;47.770;11.150;2022-07-23T09:56:52;10.88;;;3.05;;
67544;SDS011;54380;47.770;11.150;2022-07-23T09:59:22;12.20;;;2.70;;
67544;SDS011;54380;47.770;11.150;2022-07-23T10:01:52;9.63;;;2.63;;
67544;SDS011;54380;47.770;11.150;2022-07-23T10:04:20;11.60;;;3.00;;
67544;SDS011;54380;47.770;11.150;2022-07-23T10:07:11;9.13;;;2.33;;
67544;SDS011;54380;47.770;11.150;2022-07-23T10:10:06;8.73;;;2.47;;
67544;SDS011;54380;47.770;11.150;2022-07-23T10:12:53;9.68;;;3.42;;
67544;SDS011;54380;47.770;11.150;2022-07-23T10:15:32;9.30;;;2.70;;
67544;SDS011;54380;47.770;11.150;2022-07-23T10:17:59;9.77;;;2.72;;
67544;SDS011;54380;47.770;11.150;2022-07-23T10:20:26;10.18;;;2.85;;
67544;SDS011;54380;47.770;11.150;2022-07-23T10:22:57;10.57;;;2.95;;
67544;SDS011;54380;47.770;11.150;2022-07-23T10:25:32;8.77;;;2.10;;
67544;SDS011;54380;47.770;11.150;2022-07-23T10:28:08;10.10;;;2.70;;
67544;SDS011;54380;47.770;11.150;2022-07-23T10:30:51;10.85;;;2.30;;
67544;SDS011;54380;47.770;11.150;2022-07-23T10:33:29;9.50;;;2.80;;
67544;SDS011;54380;47.770;11.150;2022-07-23T10:36:07;10.50;;;2.33;;
67544;SDS011;54380;47.770;11.150;2022-07-23T10:38:39;12.48;;;2.65;;
67544;SDS011;54380;47.770;11.150;2022-07-23T10:41:14;10.60;;;3.22;;
67544;SDS011;54380;47.770;11.150;2022-07-23T10:43:41;12.23;;;3.05;;
67544;SDS011;54380;47.770;11.150;2022-07-23T10:46:21;10.65;;;3.00;;
67544;SDS011;54380;47.770;11.150;2022-07-23T10:54:49;10.05;;;2.95;;
67544;SDS011;54380;47.770;11.150;2022-07-23T10:57:18;12.40;;;4.88;;
67544;SDS011;54380;47.770;11.150;2022-07-23T11:02:43;11.30;;;3.17;;
67544;SDS011;54380;47.770;11.150;2022-07-23T11:05:12;11.73;;;2.92;;
67544;SDS011;54380;47.770;11.150;2022-07-23T11:10:45;11.63;;;3.03;;
67544;SDS011;54380;47.770;11.150;2022-07-23T11:13:36;11.48;;;3.47;;
67544;SDS011;54380;47.770;11.150;2022-07-23T11:19:06;11.60;;;3.22;;
67544;SDS011;54380;47.770;11.150;2022-07-23T11:21:43;9.98;;;3.22;;
67544;SDS011;54380;47.770;11.150;2022-07-23T11:24:12;12.18;;;2.83;;
67544;SDS011;54380;47.770;11.150;2022-07-23T11:26:42;12.75;;;2.63;;
67544;SDS011;54380;47.770;11.150;2022-07-23T11:32:23;9.57;;;2.83;;
67544;SDS011;54380;47.770;11.150;2022-07-23T11:34:54;10.48;;;2.78;;
67544;SDS011;54380;47.770;11.150;2022-07-23T11:37:28;9.80;;;2.58;;
67544;SDS011;54380;47.770;11.150;2022-07-23T11:40:02;13.43;;;3.53;;
67544;SDS011;54380;47.770;11.150;2022-07-23T11:42:34;10.20;;;3.38;;
67544;SDS011;54380;47.770;11.150;2022-07-23T11:45:01;12.10;;;3.60;;
67544;SDS011;54380;47.770;11.150;2022-07-23T11:47:29;11.57;;;3.33;;
67544;SDS011;54380;47.770;11.150;2022-07-23T11:49:56;10.43;;;2.80;;
67544;SDS011;54380;47.770;11.150;2022-07-23T11:52:25;12.07;;;2.75;;
67544;SDS011;54380;47.770;11.150;2022-07-23T11:54:54;10.65;;;3.22;;
67544;SDS011;54380;47.770;11.150;2022-07-23T11:59:52;11.25;;;4.05;;
67544;SDS011;54380;47.770;11.150;2022-07-23T12:02:23;10.07;;;2.78;;
67544;SDS011;54380;47.770;11.150;2022-07-23T12:04:51;12.23;;;3.47;;
67544;SDS011;54380;47.770;11.150;2022-07-23T12:07:23;9.40;;;2.53;;
67544;SDS011;54380;47.770;11.150;2022-07-23T12:09:52;11.48;;;3.25;;
67544;SDS011;54380;47.770;11.150;2022-07-23T12:12:19;12.55;;;3.15;;
67544;SDS011;54380;47.770;11.150;2022-07-23T12:14:47;10.05;;;2.78;;
67544;SDS011;54380;47.770;11.150;2022-07-23T12:17:16;10.07;;;2.67;;
67544;SDS011;54380;47.770;11.150;2022-07-23T12:22:11;9.73;;;2.60;;
67544;SDS011;54380;47.770;11.150;2022-07-23T12:24:53;10.00;;;4.15;;
67544;SDS011;54380;47.770;11.150;2022-07-23T12:27:21;10.60;;;3.85;;
67544;SDS011;54380;47.770;11.150;2022-07-23T12:29:48;10.55;;;2.78;;
67544;SDS011;54380;47.770;11.150;2022-07-23T12:32:18;9.00;;;2.22;;
67544;SDS011;54380;47.770;11.150;2022-07-23T12:34:47;9.93;;;2.83;;
67544;SDS011;54380;47.770;11.150;2022-07-23T12:39:53;8.13;;;2.03;;
67544;SDS011;54380;47.770;11.150;2022-07-23T12:42:20;10.15;;;2.65;;
67544;SDS011;54380;47.770;11.150;2022-07-23T12:45:04;10.25;;;3.38;;
67544;SDS011;54380;47.770;11.150;2022-07-23T12:50:34;11.95;;;2.00;;
67544;SDS011;54380;47.770;11.150;2022-07-23T12:53:12;9.57;;;2.55;;
67544;SDS011;54380;47.770;11.150;2022-07-23T12:55:50;8.40;;;2.28;;
67544;SDS011;54380;47.770;11.150;2022-07-23T13:01:24;10.48;;;2.50;;
67544;SDS011;54380;47.770;11.150;2022-07-23T13:04:01;7.95;;;1.83;;
67544;SDS011;54380;47.770;11.150;2022-07-23T13:06:50;8.93;;;2.13;;
67544;SDS011;54380;47.770;11.150;2022-07-23T13:09:19;8.70;;;2.22;;
67544;SDS011;54380;47.770;11.150;2022-07-23T13:11:47;9.00;;;2.03;;
67544;SDS011;54380;47.770;11.150;2022-07-23T13:14:15;10.43;;;2.30;;
67544;SDS011;54380;47.770;11.150;2022-07-23T13:16:43;8.82;;;2.00;;
67544;SDS011;54380;47.770;11.150;2022-07-23T13:19:12;9.13;;;2.22;;
67544;SDS011;54380;47.770;11.150;2022-07-23T13:21:40;9.52;;;2.45;;
67544;SDS011;54380;47.770;11.150;2022-07-23T13:24:10;8.68;;;1.92;;
67544;SDS011;54380;47.770;11.150;2022-07-23T13:26:38;9.63;;;2.30;;
67544;SDS011;54380;47.770;11.150;2022-07-23T13:29:06;9.52;;;2.10;;
67544;SDS011;54380;47.770;11.150;2022-07-23T13:34:04;9.65;;;2.63;;
67544;SDS011;54380;47.770;11.150;2022-07-23T13:36:32;9.45;;;2.35;;
67544;SDS011;54380;47.770;11.150;2022-07-23T13:38:59;8.82;;;1.90;;
67544;SDS011;54380;47.770;11.150;2022-07-23T13:41:27;8.55;;;2.28;;
67544;SDS011;54380;47.770;11.150;2022-07-23T13:43:54;10.82;;;1.92;;
67544;SDS011;54380;47.770;11.150;2022-07-23T13:46:23;10.30;;;2.10;;
67544;SDS011;54380;47.770;11.150;2022-07-23T13:48:50;9.70;;;2.15;;
67544;SDS011;54380;47.770;11.150;2022-07-23T13:51:17;10.25;;;2.72;;
67544;SDS011;54380;47.770;11.150;2022-07-23T13:53:46;9.18;;;2.30;;
67544;SDS011;54380;47.770;11.150;2022-07-23T13:56:13;9.80;;;2.22;;
67544;SDS011;54380;47.770;11.150;2022-07-23T13:58:40;10.48;;;2.67;;
67544;SDS011;54380;47.770;11.150;2022-07-23T14:01:07;9.30;;;2.10;;
67544;SDS011;54380;47.770;11.150;2022-07-23T14:03:34;11.65;;;2.22;;
67544;SDS011;54380;47.770;11.150;2022-07-23T14:06:01;11.15;;;2.35;;
67544;SDS011;54380;47.770;11.150;2022-07-23T14:08:28;8.13;;;2.33;;
67544;SDS011;54380;47.770;11.150;2022-07-23T14:10:56;10.07;;;2.33;;
67544;SDS011;54380;47.770;11.150;2022-07-23T14:13:24;9.90;;;2.58;;
67544;SDS011;54380;47.770;11.150;2022-07-23T14:15:51;10.18;;;2.47;;
67544;SDS011;54380;47.770;11.150;2022-07-23T14:18:18;10.90;;;2.38;;
67544;SDS011;54380;47.770;11.150;2022-07-23T14:20:47;10.48;;;2.95;;
67544;SDS011;54380;47.770;11.150;2022-07-23T14:23:13;9.98;;;2.70;;
67544;SDS011;54380;47.770;11.150;2022-07-23T14:25:40;13.00;;;3.45;;
67544;SDS011;54380;47.770;11.150;2022-07-23T14:28:09;10.25;;;2.63;;
67544;SDS011;54380;47.770;11.150;2022-07-23T14:30:38;9.68;;;2.30;;
67544;SDS011;54380;47.770;11.150;2022-07-23T14:33:07;10.90;;;2.83;;
67544;SDS011;54380;47.770;11.150;2022-07-23T14:35:35;10.70;;;3.47;;
67544;SDS011;54380;47.770;11.150;2022-07-23T14:38:01;11.35;;;3.10;;
67544;SDS011;54380;47.770;11.150;2022-07-23T14:40:30;11.45;;;2.92;;
67544;SDS011;54380;47.770;11.150;2022-07-23T14:42:56;9.75;;;2.40;;
67544;SDS011;54380;47.770;11.150;2022-07-23T14:45:24;9.48;;;2.08;;
67544;SDS011;54380;47.770;11.150;2022-07-23T14:47:51;9.05;;;2.20;;
67544;SDS011;54380;47.770;11.150;2022-07-23T14:50:19;9.77;;;2.70;;
67544;SDS011;54380;47.770;11.150;2022-07-23T14:52:46;8.93;;;2.45;;
67544;SDS011;54380;47.770;11.150;2022-07-23T14:57:44;10.32;;;2.70;;
67544;SDS011;54380;47.770;11.150;2022-07-23T15:00:11;10.85;;;2.70;;
67544;SDS011;54380;47.770;11.150;2022-07-23T15:02:43;10.68;;;2.45;;
67544;SDS011;54380;47.770;11.150;2022-07-23T15:05:19;10.38;;;2.92;;
67544;SDS011;54380;47.770;11.150;2022-07-23T15:07:46;10.40;;;2.67;;
67544;SDS011;54380;47.770;11.150;2022-07-23T15:10:13;11.15;;;2.90;;
67544;SDS011;54380;47.770;11.150;2022-07-23T15:12:40;10.32;;;2.90;;
67544;SDS011;54380;47.770;11.150;2022-07-23T15:15:07;9.98;;;2.95;;
67544;SDS011;54380;47.770;11.150;2022-07-23T15:17:35;10.80;;;3.83;;
67544;SDS011;54380;47.770;11.150;2022-07-23T15:20:05;10.13;;;3.95;;
67544;SDS011;54380;47.770;11.150;2022-07-23T15:22:34;8.98;;;2.25;;
67544;SDS011;54380;47.770;11.150;2022-07-23T15:25:01;9.20;;;2.05;;